Time;durP1;ratioP1;P1;durP2;ratioP2;P2;SDS_P1;SDS_P2;PMS_P1;PMS_P2;Temp;Humidity;BMP_temperature;BMP_pressure;BME280_temperature;BME280_humidity;BME280_pressure;Samples;Min_cycle;Max_cycle;Signal;HPM_P1;HPM_P2
2021/12/02 00:01:27;;;;;;;8.90;1.23;;;2.40;99.90;;;;;;5041246;28;20045;-91
2021/12/02 00:03:55;;;;;;;8.43;1.08;;;2.40;99.90;;;;;;5058254;28;20052;-91
2021/12/02 00:06:21;;;;;;;9.63;1.10;;;2.50;99.90;;;;;;5057688;28;20568;-92
2021/12/02 00:08:49;;;;;;;4.93;1.02;;;2.60;99.90;;;;;;5041483;28;20123;-92
2021/12/02 00:11:16;;;;;;;7.03;1.05;;;2.70;99.90;;;;;;5041214;28;20514;-92
2021/12/02 00:21:21;;;;;;;11.15;1.27;;;2.80;99.90;;;;;;5057899;28;20052;-92
2021/12/02 00:23:58;;;;;;;10.75;1.90;;;2.90;99.90;;;;;;5057762;28;20057;-92
2021/12/02 00:26:24;;;;;;;10.50;1.40;;;2.90;99.90;;;;;;5040677;28;20049;-92
2021/12/02 00:28:55;;;;;;;6.25;0.90;;;2.90;99.90;;;;;;5057649;28;20053;-93
2021/12/02 00:31:23;;;;;;;6.93;1.08;;;2.90;99.90;;;;;;5112638;27;20094;-93
2021/12/02 00:33:54;;;;;;;8.00;0.82;;;2.90;99.90;;;;;;5102264;27;20051;-93
2021/12/02 00:36:24;;;;;;;12.18;0.90;;;2.90;99.90;;;;;;5136162;27;20047;-92
2021/12/02 00:38:51;;;;;;;7.85;0.73;;;2.80;99.90;;;;;;5119299;27;20050;-91
2021/12/02 00:41:20;;;;;;;7.65;0.70;;;2.80;99.90;;;;;;5118907;27;20047;-92
2021/12/02 00:43:48;;;;;;;5.35;0.73;;;2.80;99.90;;;;;;5101810;27;20050;-91
2021/12/02 00:46:16;;;;;;;12.60;0.88;;;2.80;99.90;;;;;;5118863;27;20154;-92
2021/12/02 00:48:42;;;;;;;9.35;0.73;;;2.80;99.90;;;;;;5119003;27;20404;-91
2021/12/02 00:51:09;;;;;;;8.77;0.98;;;2.80;99.90;;;;;;5118614;27;20043;-92
2021/12/02 00:53:38;;;;;;;6.53;0.70;;;2.80;99.90;;;;;;5118900;27;20042;-91
2021/12/02 00:56:06;;;;;;;6.38;0.80;;;2.70;99.90;;;;;;5118886;27;20129;-92
2021/12/02 00:58:33;;;;;;;7.95;0.70;;;2.70;99.90;;;;;;5118686;27;20139;-92
2021/12/02 01:01:00;;;;;;;8.15;1.00;;;2.70;99.90;;;;;;5101737;27;20039;-92
2021/12/02 01:03:32;;;;;;;7.07;1.13;;;2.70;99.90;;;;;;5117916;27;20092;-92
2021/12/02 01:05:59;;;;;;;9.40;0.75;;;2.70;99.90;;;;;;5118389;27;20050;-93
2021/12/02 01:08:26;;;;;;;7.95;1.10;;;2.60;99.90;;;;;;5118732;27;20039;-92
2021/12/02 01:10:53;;;;;;;5.47;1.00;;;2.60;99.90;;;;;;5118414;27;20101;-91
2021/12/02 01:13:19;;;;;;;4.90;1.17;;;2.60;99.90;;;;;;5101155;27;20047;-91
2021/12/02 01:15:45;;;;;;;9.38;0.75;;;2.50;99.90;;;;;;5134939;27;20159;-92
2021/12/02 01:18:11;;;;;;;8.00;1.20;;;2.40;99.90;;;;;;5118079;27;20047;-91
2021/12/02 01:20:37;;;;;;;4.55;0.88;;;2.40;99.90;;;;;;5101071;27;20115;-92
2021/12/02 01:23:07;;;;;;;5.20;0.60;;;2.30;99.90;;;;;;5135245;27;20051;-91
2021/12/02 01:25:33;;;;;;;7.43;1.10;;;2.20;99.90;;;;;;5118088;27;20054;-92
2021/12/02 01:28:00;;;;;;;7.38;0.88;;;2.20;99.90;;;;;;5101192;27;20047;-91
2021/12/02 01:30:30;;;;;;;5.50;0.82;;;2.20;99.90;;;;;;5100974;27;20137;-91
2021/12/02 01:33:03;;;;;;;9.95;0.98;;;2.20;99.90;;;;;;5100850;27;20047;-92
2021/12/02 01:35:31;;;;;;;4.97;1.08;;;2.20;99.90;;;;;;5117823;27;20438;-92
2021/12/02 01:37:57;;;;;;;10.73;0.95;;;2.20;99.90;;;;;;5117561;27;20449;-91
2021/12/02 01:40:24;;;;;;;6.88;0.85;;;2.20;99.90;;;;;;5100445;27;20047;-93
2021/12/02 01:42:56;;;;;;;10.98;1.33;;;2.20;99.90;;;;;;5100458;27;20035;-92
2021/12/02 01:45:26;;;;;;;7.45;0.90;;;2.20;99.90;;;;;;5100683;27;20134;-92
2021/12/02 01:47:54;;;;;;;5.78;0.93;;;2.20;99.90;;;;;;5100802;27;20396;-92
2021/12/02 01:50:22;;;;;;;5.50;1.08;;;2.20;99.90;;;;;;5117805;27;20129;-92
2021/12/02 01:53:00;;;;;;;6.22;1.13;;;2.30;99.90;;;;;;5117640;27;20150;-92
2021/12/02 01:55:28;;;;;;;7.32;0.70;;;2.40;99.90;;;;;;5099919;27;20090;-92
2021/12/02 01:58:01;;;;;;;10.15;1.10;;;2.50;99.90;;;;;;5117375;27;20100;-92
2021/12/02 02:00:33;;;;;;;6.90;1.02;;;2.60;99.90;;;;;;5100109;27;20125;-92
2021/12/02 02:03:01;;;;;;;8.65;0.70;;;2.60;99.90;;;;;;5100281;27;20042;-92
2021/12/02 02:05:28;;;;;;;9.10;0.82;;;2.70;99.90;;;;;;5100562;27;20196;-92
2021/12/02 02:08:25;;;;;;;6.45;0.80;;;2.80;99.90;;;;;;5117282;27;20078;-91
2021/12/02 02:10:51;;;;;;;3.97;0.50;;;2.80;99.90;;;;;;5116060;27;20515;-94
2021/12/02 02:13:19;;;;;;;7.05;0.80;;;2.70;99.90;;;;;;5100963;27;20055;-92
2021/12/02 02:15:49;;;;;;;6.93;1.15;;;2.70;99.90;;;;;;5100135;27;20132;-95
2021/12/02 02:18:20;;;;;;;2.85;0.68;;;2.50;99.90;;;;;;5100413;27;20480;-94
2021/12/02 02:21:00;;;;;;;6.50;0.60;;;2.40;99.90;;;;;;5100760;27;20068;-94
2021/12/02 02:23:29;;;;;;;4.68;0.65;;;2.30;99.90;;;;;;5100266;27;20042;-91
2021/12/02 02:25:56;;;;;;;7.18;1.10;;;2.10;99.90;;;;;;5134480;27;20100;-93
2021/12/02 02:28:22;;;;;;;8.40;0.70;;;1.80;99.90;;;;;;5134374;27;20046;-93
2021/12/02 02:30:48;;;;;;;6.53;0.73;;;1.60;99.90;;;;;;5100094;27;20134;-91
2021/12/02 02:33:17;;;;;;;9.02;0.75;;;1.40;99.90;;;;;;5099904;27;20039;-93
2021/12/02 02:35:43;;;;;;;6.70;0.90;;;1.20;99.90;;;;;;5099769;27;20054;-93
2021/12/02 02:38:10;;;;;;;9.15;0.90;;;1.10;99.90;;;;;;5099497;28;20039;-92
2021/12/02 02:40:41;;;;;;;7.45;0.65;;;1.10;99.90;;;;;;5117059;28;20103;-92
2021/12/02 02:43:09;;;;;;;8.73;0.65;;;1.00;99.90;;;;;;5099615;27;20509;-92
2021/12/02 02:45:50;;;;;;;5.38;0.70;;;1.00;99.90;;;;;;5099719;28;20137;-92
2021/12/02 02:48:16;;;;;;;6.15;0.85;;;0.90;99.90;;;;;;5099322;28;20107;-92
2021/12/02 02:50:42;;;;;;;12.52;0.88;;;0.90;99.90;;;;;;5099401;28;20051;-92
2021/12/02 02:53:16;;;;;;;5.30;0.57;;;0.80;99.90;;;;;;5099614;28;20073;-91
2021/12/02 02:55:46;;;;;;;6.32;0.80;;;0.80;99.90;;;;;;5099484;28;20062;-92
2021/12/02 02:58:23;;;;;;;4.53;0.75;;;0.70;99.90;;;;;;5099676;28;20040;-92
2021/12/02 03:03:40;;;;;;;6.95;0.77;;;0.60;99.90;;;;;;5116305;28;20130;-92
2021/12/02 03:08:57;;;;;;;6.40;0.60;;;0.60;99.90;;;;;;5134019;28;20047;-92
2021/12/02 03:11:26;;;;;;;8.80;0.47;;;0.60;99.90;;;;;;5116608;28;20054;-91
2021/12/02 03:13:54;;;;;;;5.95;0.47;;;0.70;99.90;;;;;;5099294;28;20035;-92
2021/12/02 03:16:57;;;;;;;6.93;0.93;;;0.70;99.90;;;;;;5099522;28;20512;-93
2021/12/02 03:19:26;;;;;;;5.80;0.60;;;0.70;99.90;;;;;;5100007;28;20086;-93
2021/12/02 03:21:54;;;;;;;3.78;0.30;;;0.70;99.90;;;;;;5099721;28;20043;-93
2021/12/02 03:24:21;;;;;;;1.55;0.40;;;0.70;99.90;;;;;;5099711;28;20130;-93
2021/12/02 03:26:47;;;;;;;3.00;0.32;;;0.80;99.90;;;;;;5099780;28;20039;-92
2021/12/02 03:29:13;;;;;;;3.38;0.40;;;0.80;99.90;;;;;;5100230;28;20614;-94
2021/12/02 03:31:39;;;;;;;7.75;0.68;;;0.80;99.90;;;;;;5099984;28;20047;-93
2021/12/02 03:34:07;;;;;;;5.00;0.45;;;0.80;99.90;;;;;;5099796;28;20388;-92
2021/12/02 03:36:33;;;;;;;2.05;0.30;;;0.80;99.90;;;;;;5099479;28;20055;-92
2021/12/02 03:38:59;;;;;;;6.57;0.55;;;0.80;99.90;;;;;;5133881;28;20126;-92
2021/12/02 03:41:25;;;;;;;3.85;0.30;;;0.80;99.90;;;;;;5099513;28;20090;-92
2021/12/02 03:43:51;;;;;;;3.65;0.40;;;1.10;99.90;;;;;;5099512;28;20039;-94
2021/12/02 03:46:19;;;;;;;3.70;0.47;;;0.80;99.90;;;;;;5099739;28;20043;-92
2021/12/02 03:48:46;;;;;;;3.42;0.47;;;0.80;99.90;;;;;;5099682;28;20050;-94
2021/12/02 03:51:12;;;;;;;3.22;0.32;;;0.80;99.90;;;;;;5099627;28;20039;-92
2021/12/02 03:53:38;;;;;;;1.10;0.30;;;0.80;99.90;;;;;;5099808;28;20458;-93
2021/12/02 03:56:06;;;;;;;3.78;0.40;;;1.00;99.90;;;;;;5099530;28;20047;-92
2021/12/02 03:58:34;;;;;;;5.97;0.40;;;0.90;99.90;;;;;;5099572;28;20115;-93
2021/12/02 04:00:59;;;;;;;4.57;0.40;;;0.90;99.90;;;;;;5099691;27;20095;-92
2021/12/02 04:03:25;;;;;;;3.22;0.43;;;0.90;99.90;;;;;;5102437;27;20130;-92
2021/12/02 04:05:51;;;;;;;4.03;0.57;;;1.10;99.90;;;;;;5103138;27;20057;-92
2021/12/02 04:08:17;;;;;;;3.05;0.43;;;1.10;99.90;;;;;;5119813;27;20505;-92
2021/12/02 04:10:43;;;;;;;2.85;0.47;;;1.30;99.90;;;;;;5102826;27;20476;-93
2021/12/02 04:13:24;;;;;;;3.50;0.40;;;1.10;99.90;;;;;;5103038;27;20564;-93
2021/12/02 04:15:57;;;;;;;7.35;0.40;;;1.30;99.90;;;;;;5102646;27;20523;-94
2021/12/02 04:18:24;;;;;;;2.60;0.45;;;1.30;99.90;;;;;;5103135;27;20055;-92
2021/12/02 04:20:49;;;;;;;3.85;0.50;;;1.40;99.90;;;;;;5102981;27;20472;-92
2021/12/02 04:23:15;;;;;;;5.57;0.60;;;1.60;99.90;;;;;;5102730;27;20060;-92
2021/12/02 04:25:41;;;;;;;5.50;0.82;;;1.40;99.90;;;;;;5102406;27;20051;-92
2021/12/02 04:28:06;;;;;;;3.35;0.82;;;1.40;99.90;;;;;;5102885;27;20066;-93
2021/12/02 04:30:32;;;;;;;5.55;0.80;;;1.40;99.90;;;;;;5102626;27;20050;-93
2021/12/02 04:32:58;;;;;;;8.43;0.73;;;1.50;99.90;;;;;;5106446;27;20079;-93
2021/12/02 04:35:24;;;;;;;2.22;0.30;;;1.70;99.90;;;;;;5106878;27;20064;-91
2021/12/02 04:37:52;;;;;;;7.75;0.88;;;1.50;99.90;;;;;;5105733;27;20176;-92
2021/12/02 04:40:21;;;;;;;7.45;0.50;;;1.30;99.90;;;;;;5119947;27;20051;-91
2021/12/02 04:42:48;;;;;;;53.90;4.07;;;1.40;99.90;;;;;;5101946;27;20043;-91
2021/12/02 04:45:14;;;;;;;3.35;0.10;;;1.40;99.90;;;;;;5102425;27;20047;-92
2021/12/02 04:47:40;;;;;;;10.75;0.73;;;1.60;99.90;;;;;;5102062;27;20050;-91
2021/12/02 04:50:08;;;;;;;1086.20;101.10;;;1.20;99.90;;;;;;5101966;27;20039;-93
2021/12/02 04:52:34;;;;;;;139.00;7.13;;;1.30;99.90;;;;;;5119167;27;20050;-92
2021/12/02 04:54:59;;;;;;;167.40;10.35;;;1.30;99.90;;;;;;5102543;27;20134;-92
2021/12/02 04:57:25;;;;;;;93.78;4.85;;;1.30;99.90;;;;;;5119363;27;20055;-93
2021/12/02 04:59:51;;;;;;;1.75;0.55;;;1.40;99.90;;;;;;5102240;27;20054;-94
2021/12/02 05:02:16;;;;;;;7.72;0.52;;;1.50;99.90;;;;;;5119127;27;20085;-92
2021/12/02 05:04:42;;;;;;;5.85;0.73;;;1.50;99.90;;;;;;5102238;27;20035;-92
2021/12/02 05:07:08;;;;;;;4.78;0.50;;;1.60;99.90;;;;;;5118557;27;20099;-92
2021/12/02 05:09:34;;;;;;;3.20;0.35;;;1.60;99.90;;;;;;5119059;27;20092;-92
2021/12/02 05:12:00;;;;;;;6.03;0.73;;;1.50;99.90;;;;;;5102313;27;20081;-92
2021/12/02 05:14:26;;;;;;;4.68;0.40;;;1.70;99.90;;;;;;5101629;27;20099;-92
2021/12/02 05:16:52;;;;;;;3.58;0.30;;;1.70;99.90;;;;;;5101663;27;20043;-92
2021/12/02 05:19:18;;;;;;;4.43;0.70;;;1.80;99.90;;;;;;5118853;27;20131;-90
2021/12/02 05:21:44;;;;;;;6.60;0.68;;;1.60;99.90;;;;;;5118411;27;20049;-93
2021/12/02 05:24:10;;;;;;;5.07;0.50;;;1.60;99.90;;;;;;5101148;27;20090;-93
2021/12/02 05:26:35;;;;;;;4.22;0.70;;;1.50;99.90;;;;;;5101359;27;20051;-93
2021/12/02 05:29:02;;;;;;;2.97;0.80;;;1.60;99.90;;;;;;5101340;27;20050;-93
2021/12/02 05:31:28;;;;;;;2.78;0.70;;;1.70;99.90;;;;;;5101276;27;20607;-92
2021/12/02 05:33:53;;;;;;;3.55;0.52;;;1.60;99.90;;;;;;5118328;27;20064;-92
2021/12/02 05:36:19;;;;;;;1.70;0.52;;;1.50;99.90;;;;;;5117927;27;20133;-93
2021/12/02 05:38:45;;;;;;;5.40;0.82;;;1.40;99.90;;;;;;5100823;27;20401;-92
2021/12/02 05:41:14;;;;;;;3.72;0.70;;;1.40;99.90;;;;;;5100695;27;20039;-93
2021/12/02 05:43:40;;;;;;;3.83;0.82;;;1.40;99.90;;;;;;5100913;27;20043;-92
2021/12/02 05:46:06;;;;;;;6.47;0.77;;;1.40;99.90;;;;;;5118315;27;20043;-92
2021/12/02 05:48:34;;;;;;;2.10;0.50;;;1.30;99.90;;;;;;5101297;27;20075;-91
2021/12/02 05:51:00;;;;;;;4.10;0.40;;;1.30;99.90;;;;;;5100958;27;20134;-92
2021/12/02 05:53:26;;;;;;;2.30;0.40;;;1.30;99.90;;;;;;5117610;27;20043;-92
2021/12/02 05:55:52;;;;;;;2.60;0.45;;;1.40;99.90;;;;;;5100759;27;20053;-91
2021/12/02 05:58:18;;;;;;;6.38;0.50;;;1.30;99.90;;;;;;5100856;27;20050;-91
2021/12/02 06:01:03;;;;;;;5.50;0.57;;;1.30;99.90;;;;;;5100850;27;20086;-93
2021/12/02 06:03:29;;;;;;;2.95;0.45;;;1.70;99.90;;;;;;5100852;27;20043;-91
2021/12/02 06:05:55;;;;;;;6.03;0.50;;;1.30;99.90;;;;;;5117290;27;20039;-91
2021/12/02 06:08:21;;;;;;;8.75;0.68;;;1.50;99.90;;;;;;5100217;27;20099;-94
2021/12/02 06:10:46;;;;;;;36.97;2.08;;;1.30;99.90;;;;;;5117954;27;20039;-91
2021/12/02 06:13:12;;;;;;;3.28;0.60;;;1.30;99.90;;;;;;5100699;27;20116;-92
2021/12/02 06:15:38;;;;;;;3.88;0.52;;;1.40;99.90;;;;;;5100171;27;20062;-91
2021/12/02 06:18:04;;;;;;;2.42;0.40;;;1.50;99.90;;;;;;5100039;27;20051;-92
2021/12/02 06:20:29;;;;;;;21.50;1.25;;;1.50;99.90;;;;;;5117198;27;20134;-91
2021/12/02 06:22:55;;;;;;;2.58;0.40;;;1.50;99.90;;;;;;5100182;27;20039;-91
2021/12/02 06:27:50;;;;;;;3.38;0.30;;;1.40;99.90;;;;;;5134327;27;20134;-92
2021/12/02 06:30:18;;;;;;;2.10;0.55;;;1.50;99.90;;;;;;5099873;27;20051;-92
2021/12/02 06:32:44;;;;;;;2.22;0.50;;;1.30;99.90;;;;;;5099731;27;20054;-92
2021/12/02 06:35:10;;;;;;;3.55;0.60;;;1.30;99.90;;;;;;5099873;27;20054;-92
2021/12/02 06:37:37;;;;;;;3.05;0.32;;;1.10;99.90;;;;;;5099920;27;20043;-91
2021/12/02 06:40:04;;;;;;;3.75;0.30;;;1.20;99.90;;;;;;5100310;27;20447;-91
2021/12/02 06:42:30;;;;;;;1.50;0.30;;;1.20;99.90;;;;;;5099550;27;20488;-92
2021/12/02 06:44:58;;;;;;;1.38;0.25;;;1.20;99.90;;;;;;5099794;27;20046;-92
2021/12/02 06:47:30;;;;;;;2.83;0.40;;;1.30;99.90;;;;;;5099703;27;20485;-92
2021/12/02 06:49:59;;;;;;;7.13;0.73;;;1.30;99.90;;;;;;5099853;27;20088;-90
2021/12/02 06:52:27;;;;;;;2.35;0.45;;;1.40;99.90;;;;;;5099650;27;20042;-91
2021/12/02 06:54:55;;;;;;;1.77;0.30;;;1.40;99.90;;;;;;5116917;27;20043;-89
2021/12/02 06:57:22;;;;;;;3.83;0.40;;;1.40;99.90;;;;;;5116752;28;20039;-91
2021/12/02 06:59:48;;;;;;;1.63;0.60;;;1.40;99.90;;;;;;5099892;28;20039;-91
2021/12/02 07:02:14;;;;;;;1.92;0.45;;;1.40;99.90;;;;;;5099280;28;20038;-91
2021/12/02 07:04:40;;;;;;;1.42;0.30;;;1.40;99.90;;;;;;5100279;28;20050;-91
2021/12/02 07:07:06;;;;;;;2.15;0.70;;;1.40;99.90;;;;;;5099306;28;20046;-91
2021/12/02 07:09:32;;;;;;;1.90;0.50;;;1.40;99.90;;;;;;5099594;28;20055;-91
2021/12/02 07:11:58;;;;;;;1.10;0.55;;;1.50;99.90;;;;;;5099560;28;20055;-92
2021/12/02 07:14:25;;;;;;;1.55;0.57;;;1.40;99.90;;;;;;5099819;28;20081;-92
2021/12/02 07:16:52;;;;;;;3.13;0.60;;;1.70;99.90;;;;;;5098488;28;20047;-91
2021/12/02 07:19:18;;;;;;;1.70;0.80;;;1.50;99.90;;;;;;5115849;28;20047;-91
2021/12/02 07:21:44;;;;;;;1.83;0.50;;;1.40;99.90;;;;;;5098723;28;20103;-91
2021/12/02 07:24:13;;;;;;;1.63;0.70;;;1.20;99.90;;;;;;5099581;28;20130;-91
2021/12/02 07:26:41;;;;;;;2.58;0.80;;;1.10;99.90;;;;;;5099368;28;20058;-90
2021/12/02 07:29:11;;;;;;;3.92;1.42;;;1.10;99.90;;;;;;5099756;28;20047;-91
2021/12/02 07:31:39;;;;;;;4.07;1.10;;;1.10;99.90;;;;;;5098904;28;20051;-90
2021/12/02 07:34:06;;;;;;;1.40;0.90;;;1.10;99.90;;;;;;5099580;28;20047;-92
2021/12/02 07:36:33;;;;;;;3.53;0.93;;;1.10;99.90;;;;;;5116549;27;20047;-92
2021/12/02 07:39:08;;;;;;;188.80;8.75;;;1.20;99.90;;;;;;5103005;27;20043;-91
2021/12/02 07:41:35;;;;;;;10.13;1.80;;;1.20;99.90;;;;;;5103025;27;20400;-91
2021/12/02 07:44:01;;;;;;;5.60;1.58;;;1.20;99.90;;;;;;5120300;27;20133;-92
2021/12/02 07:46:27;;;;;;;5.57;1.65;;;1.40;99.90;;;;;;5103466;27;20126;-92
2021/12/02 07:48:54;;;;;;;6.15;1.80;;;1.40;99.90;;;;;;5120072;27;20477;-92
2021/12/02 07:51:22;;;;;;;5.97;1.98;;;1.40;99.90;;;;;;5103006;27;20138;-91
2021/12/02 07:53:49;;;;;;;6.82;1.77;;;1.50;99.90;;;;;;5116313;28;20135;-92
2021/12/02 07:56:17;;;;;;;35.25;2.60;;;1.40;99.90;;;;;;5082718;28;20035;-92
2021/12/02 07:58:46;;;;;;;4.30;1.65;;;1.60;99.90;;;;;;5083040;28;20071;-92
2021/12/02 08:01:12;;;;;;;5.50;1.60;;;1.50;99.90;;;;;;5082427;28;20523;-92
2021/12/02 08:03:44;;;;;;;2.33;1.30;;;1.30;99.90;;;;;;5082336;28;20048;-91
2021/12/02 08:06:11;;;;;;;;;;;1.30;99.90;;;;;;5082879;28;20396;-91
2021/12/02 08:08:40;;;;;;;3.17;1.20;;;1.40;99.90;;;;;;5099571;28;19926;-91
2021/12/02 08:11:07;;;;;;;7.00;1.30;;;1.20;99.90;;;;;;5082121;28;20044;-91
2021/12/02 08:13:33;;;;;;;4.72;1.70;;;1.20;99.90;;;;;;5082710;28;20130;-90
2021/12/02 08:15:58;;;;;;;2.50;1.20;;;1.40;99.90;;;;;;5082159;28;20166;-91
2021/12/02 08:18:24;;;;;;;6.88;1.52;;;1.50;99.90;;;;;;5098844;28;20052;-91
2021/12/02 08:20:50;;;;;;;2.78;1.10;;;1.40;99.90;;;;;;5099082;28;20050;-90
2021/12/02 08:23:18;;;;;;;36.90;2.28;;;1.50;99.90;;;;;;5098542;28;20385;-90
2021/12/02 08:25:43;;;;;;;5.85;1.80;;;1.70;99.90;;;;;;5098966;28;20135;-92
2021/12/02 08:28:09;;;;;;;7.20;1.38;;;1.80;99.90;;;;;;5098615;28;20147;-90
2021/12/02 08:30:37;;;;;;;4.32;1.25;;;2.00;99.90;;;;;;5098791;28;20050;-90
2021/12/02 08:33:05;;;;;;;2.67;0.90;;;2.10;99.90;;;;;;5081792;28;20044;-91
2021/12/02 08:35:31;;;;;;;3.75;0.90;;;2.20;99.90;;;;;;5081495;28;20504;-90
2021/12/02 08:38:04;;;;;;;1.85;0.80;;;2.40;99.90;;;;;;5098963;28;20035;-90
2021/12/02 08:40:32;;;;;;;4.82;0.85;;;2.40;99.90;;;;;;5098656;28;20051;-92
2021/12/02 08:43:02;;;;;;;2.05;0.82;;;2.50;99.90;;;;;;5081429;28;20036;-91
2021/12/02 08:45:29;;;;;;;3.60;1.45;;;2.90;99.90;;;;;;5081506;28;20051;-92
2021/12/02 08:47:56;;;;;;;8.25;1.23;;;3.70;99.90;;;;;;5097912;28;20040;-91
2021/12/02 08:50:23;;;;;;;2.38;1.10;;;4.30;99.90;;;;;;5098409;28;20047;-93
2021/12/02 08:52:51;;;;;;;4.05;0.95;;;5.10;99.90;;;;;;5081873;28;20043;-91
2021/12/02 08:55:18;;;;;;;1.73;0.70;;;5.30;99.90;;;;;;5098294;28;20045;-92
2021/12/02 08:57:45;;;;;;;2.63;0.65;;;4.70;99.90;;;;;;5098239;28;20039;-92
2021/12/02 09:00:14;;;;;;;1.38;0.50;;;4.30;99.90;;;;;;5081170;28;20067;-92
2021/12/02 09:02:40;;;;;;;4.28;0.73;;;3.90;99.90;;;;;;5080500;28;20040;-92
2021/12/02 09:05:06;;;;;;;1.33;0.45;;;3.70;99.90;;;;;;5098080;28;20062;-91
2021/12/02 09:07:34;;;;;;;4.72;1.05;;;3.50;99.90;;;;;;5081223;28;20504;-92
2021/12/02 09:10:00;;;;;;;3.00;0.80;;;3.30;99.90;;;;;;5097846;28;20454;-91
2021/12/02 09:12:25;;;;;;;4.40;0.73;;;3.00;99.90;;;;;;5098126;28;20079;-91
2021/12/02 09:14:51;;;;;;;2.80;0.68;;;2.80;99.90;;;;;;5097687;28;20487;-92
2021/12/02 09:17:18;;;;;;;13.93;0.98;;;2.60;99.90;;;;;;5097522;28;20485;-92
2021/12/02 09:19:44;;;;;;;2.78;0.98;;;2.50;99.90;;;;;;5080886;28;20137;-91
2021/12/02 09:22:10;;;;;;;2.63;0.77;;;2.50;99.90;;;;;;5097642;28;20131;-90
2021/12/02 09:24:36;;;;;;;5.13;0.88;;;2.30;99.90;;;;;;5097607;28;20050;-91
2021/12/02 09:27:02;;;;;;;5.82;0.90;;;2.30;99.90;;;;;;5097116;28;20413;-90
2021/12/02 09:29:28;;;;;;;3.38;0.68;;;2.30;99.90;;;;;;5097344;28;20051;-90
2021/12/02 09:31:55;;;;;;;2.95;0.50;;;2.30;99.90;;;;;;5097133;28;20054;-91
2021/12/02 09:34:21;;;;;;;10.27;1.35;;;2.60;99.90;;;;;;5097264;28;20138;-92
2021/12/02 09:36:48;;;;;;;1.73;0.50;;;3.10;99.90;;;;;;5097631;28;20134;-90
2021/12/02 09:39:15;;;;;;;1.58;0.40;;;4.10;99.90;;;;;;5080684;28;20050;-91
2021/12/02 09:41:43;;;;;;;4.07;0.57;;;4.80;99.90;;;;;;5097124;28;20167;-91
2021/12/02 09:44:09;;;;;;;58.03;2.70;;;5.60;99.90;;;;;;5097310;28;20082;-91
2021/12/02 09:46:35;;;;;;;3.58;0.57;;;6.60;99.90;;;;;;5096822;28;20044;-92
2021/12/02 09:49:03;;;;;;;11.02;0.90;;;7.40;99.90;;;;;;5073301;27;20097;-92
2021/12/02 09:51:36;;;;;;;2.40;0.40;;;8.30;99.90;;;;;;5100353;27;20047;-93
2021/12/02 09:54:10;;;;;;;3.08;0.45;;;8.40;99.90;;;;;;5117442;27;20096;-93
2021/12/02 09:56:38;;;;;;;1.25;0.35;;;8.20;99.90;;;;;;5117306;27;20186;-91
2021/12/02 09:59:08;;;;;;;4.28;0.45;;;7.60;99.90;;;;;;5116662;28;20058;-92
2021/12/02 10:01:41;;;;;;;0.25;0.25;;;7.60;99.90;;;;;;5099639;27;20047;-91
2021/12/02 10:04:09;;;;;;;1.85;0.32;;;8.10;99.90;;;;;;5100334;27;20548;-92
2021/12/02 10:06:35;;;;;;;2.58;1.70;;;8.10;99.90;;;;;;5112664;27;20039;-91
2021/12/02 10:09:16;;;;;;;7.63;2.78;;;8.20;99.90;;;;;;5113611;28;20036;-92
2021/12/02 10:12:00;;;;;;;2.45;0.32;;;7.90;99.90;;;;;;5113061;28;20043;-93
2021/12/02 10:14:33;;;;;;;3.92;3.20;;;7.50;99.90;;;;;;5096258;28;20097;-92
2021/12/02 10:17:10;;;;;;;2.78;1.95;;;7.50;99.90;;;;;;5092929;27;20057;-92
2021/12/02 10:19:36;;;;;;;3.17;0.73;;;7.90;99.90;;;;;;5117046;27;20051;-92
2021/12/02 10:22:09;;;;;;;8.18;4.68;;;8.00;99.90;;;;;;5099599;27;20043;-91
2021/12/02 10:24:43;;;;;;;27.95;18.88;;;8.10;99.90;;;;;;5099311;27;20108;-92
2021/12/02 10:27:09;;;;;;;14.07;11.45;;;8.10;99.90;;;;;;5116778;27;20055;-90
2021/12/02 10:29:37;;;;;;;3.42;2.38;;;7.50;99.90;;;;;;5116337;27;20046;-92
2021/12/02 10:32:34;;;;;;;4.68;1.70;;;6.80;99.90;;;;;;5099751;27;20110;-91
2021/12/02 10:35:04;;;;;;;6.50;5.22;;;6.10;99.90;;;;;;5113296;27;20134;-90
2021/12/02 10:37:33;;;;;;;7.20;4.68;;;5.60;99.90;;;;;;5116650;27;20055;-91
2021/12/02 10:40:03;;;;;;;12.30;8.77;;;5.40;99.90;;;;;;5116491;27;20050;-91
2021/12/02 10:42:32;;;;;;;12.97;8.70;;;6.00;99.90;;;;;;5116292;27;20082;-90
2021/12/02 10:45:02;;;;;;;6.55;4.10;;;6.50;99.90;;;;;;5099454;27;20090;-92
2021/12/02 10:47:28;;;;;;;2.30;1.15;;;6.90;99.90;;;;;;5116228;27;20050;-92
2021/12/02 10:49:57;;;;;;;8.00;4.15;;;7.70;99.90;;;;;;5110425;27;20055;-90
2021/12/02 10:52:27;;;;;;;11.40;4.50;;;8.60;99.90;;;;;;5116810;27;20046;-90
2021/12/02 10:55:03;;;;;;;4.82;2.75;;;8.90;99.90;;;;;;5116709;28;20050;-91
2021/12/02 10:57:30;;;;;;;2.40;0.60;;;8.40;99.90;;;;;;5116355;28;20047;-91
2021/12/02 11:00:04;;;;;;;4.32;1.10;;;7.80;99.90;;;;;;5134338;28;20124;-91
2021/12/02 11:02:35;;;;;;;1.88;0.77;;;6.90;99.90;;;;;;5116253;28;20125;-91
2021/12/02 11:05:24;;;;;;;3.45;0.52;;;7.50;99.90;;;;;;5099352;28;20043;-92
2021/12/02 11:07:56;;;;;;;5.88;1.98;;;8.00;99.90;;;;;;5116238;28;20099;-91
2021/12/02 11:10:24;;;;;;;2.83;1.00;;;7.80;99.90;;;;;;5098868;27;20055;-91
2021/12/02 11:12:53;;;;;;;3.42;0.90;;;7.10;99.90;;;;;;5103221;27;20493;-90
2021/12/02 11:15:23;;;;;;;3.33;1.00;;;6.60;99.90;;;;;;5116843;28;20047;-91
2021/12/02 11:17:52;;;;;;;4.85;1.30;;;6.10;99.90;;;;;;5083276;28;20055;-91
2021/12/02 11:20:23;;;;;;;6.00;0.70;;;5.70;99.90;;;;;;5082935;28;20524;-90
2021/12/02 11:23:03;;;;;;;1.50;0.30;;;5.60;99.90;;;;;;5083055;28;20066;-90
2021/12/02 11:25:29;;;;;;;1.80;0.30;;;5.00;99.90;;;;;;5082771;28;20051;-91
2021/12/02 11:27:55;;;;;;;0.43;0.15;;;4.50;99.90;;;;;;5099737;28;20130;-92
2021/12/02 11:30:29;;;;;;;4.00;1.13;;;4.00;99.90;;;;;;5083077;28;20126;-91
2021/12/02 11:32:56;;;;;;;1.50;0.82;;;3.60;99.90;;;;;;5099892;28;20089;-91
2021/12/02 11:35:31;;;;;;;12.90;8.07;;;3.40;99.90;;;;;;5116566;28;20089;-90
2021/12/02 11:38:18;;;;;;;4.00;2.40;;;3.10;99.90;;;;;;5082615;28;20086;-90
2021/12/02 11:40:50;;;;;;;6.90;4.35;;;3.10;99.90;;;;;;5099496;28;20044;-90
2021/12/02 11:43:23;;;;;;;24.73;15.48;;;2.90;99.90;;;;;;5099101;28;20048;-90
2021/12/02 11:45:51;;;;;;;4.60;3.08;;;2.90;99.90;;;;;;5099307;28;20120;-90
2021/12/02 11:48:28;;;;;;;2.17;0.93;;;2.80;99.90;;;;;;5082289;28;20054;-90
2021/12/02 11:50:57;;;;;;;3.78;0.60;;;2.70;99.90;;;;;;5081993;28;20055;-90
2021/12/02 11:53:22;;;;;;;3.15;1.50;;;2.70;99.90;;;;;;5098890;28;20043;-90
2021/12/02 11:55:51;;;;;;;3.42;2.22;;;2.70;99.90;;;;;;5098328;28;20053;-90
2021/12/02 11:58:17;;;;;;;3.80;2.33;;;2.70;99.90;;;;;;5098880;28;20056;-90
2021/12/02 12:00:44;;;;;;;5.13;3.40;;;2.70;99.90;;;;;;5098781;28;20044;-90
2021/12/02 12:03:38;;;;;;;8.38;4.78;;;2.90;99.90;;;;;;5098188;28;20112;-91
2021/12/02 12:06:08;;;;;;;2.10;1.48;;;2.70;99.90;;;;;;4997870;28;20061;-90
2021/12/02 12:08:42;;;;;;;5.03;0.70;;;2.90;99.90;;;;;;4998166;28;20112;-91
2021/12/02 12:11:26;;;;;;;4.18;2.10;;;3.00;99.90;;;;;;4998444;28;20058;-90
2021/12/02 12:13:57;;;;;;;6.65;2.55;;;3.10;99.90;;;;;;4997978;28;20096;-90
2021/12/02 12:16:25;;;;;;;;;;;3.20;99.90;;;;;;5013407;28;20054;-91
2021/12/02 12:18:52;;;;;;;1.98;0.70;;;3.20;99.90;;;;;;5001542;28;20501;-91
2021/12/02 12:21:18;;;;;;;3.42;0.73;;;3.30;99.90;;;;;;5001548;28;20053;-91
2021/12/02 12:24:00;;;;;;;1.27;0.82;;;3.40;99.90;;;;;;4999837;28;20100;-90
2021/12/02 12:26:31;;;;;;;1.13;0.30;;;3.40;99.90;;;;;;5001175;28;20103;-91
2021/12/02 12:31:44;;;;;;;1.83;0.40;;;3.50;99.90;;;;;;5017340;28;20088;-90
2021/12/02 12:34:32;;;;;;;0.30;0.20;;;3.40;99.90;;;;;;5001066;28;20111;-89
2021/12/02 12:37:02;;;;;;;0.73;0.30;;;3.40;99.90;;;;;;5016740;28;20079;-89
2021/12/02 12:39:32;;;;;;;4.60;0.57;;;3.40;99.90;;;;;;5033469;28;20059;-91
2021/12/02 12:42:19;;;;;;;2.28;0.40;;;3.30;99.90;;;;;;5021630;27;20084;-89
2021/12/02 12:44:53;;;;;;;2.80;0.30;;;3.30;99.90;;;;;;5101156;27;20137;-90
2021/12/02 12:47:39;;;;;;;2.33;0.30;;;3.20;99.90;;;;;;5063931;28;20135;-89
2021/12/02 12:50:26;;;;;;;2.20;0.50;;;3.20;99.90;;;;;;5060669;28;20406;-90
2021/12/02 12:53:18;;;;;;;0.68;0.30;;;3.20;99.90;;;;;;5094588;28;20090;-90
2021/12/02 12:55:52;;;;;;;1.08;0.40;;;3.20;99.90;;;;;;5077089;28;20036;-90
2021/12/02 12:58:19;;;;;;;1.27;0.50;;;3.30;99.90;;;;;;5060180;28;20444;-89
2021/12/02 13:00:50;;;;;;;1.38;0.50;;;3.30;99.90;;;;;;5060645;28;20048;-89
2021/12/02 13:03:31;;;;;;;2.13;0.47;;;3.20;99.90;;;;;;5076770;28;20040;-90
2021/12/02 13:06:11;;;;;;;;;;;3.10;99.90;;;;;;5077516;28;20051;-90
2021/12/02 13:08:51;;;;;;;1.17;0.55;;;3.40;99.90;;;;;;5077359;28;19931;-90
2021/12/02 13:11:26;;;;;;;1.30;1.00;;;4.00;99.90;;;;;;5093768;28;20436;-89
2021/12/02 13:13:54;;;;;;;1.98;0.70;;;4.60;99.90;;;;;;5077072;28;20043;-90
2021/12/02 13:16:20;;;;;;;1.75;0.68;;;4.90;99.90;;;;;;5068058;27;20141;-90
2021/12/02 13:18:59;;;;;;;2.38;1.02;;;4.80;99.90;;;;;;5101201;27;20043;-90
2021/12/02 13:21:34;;;;;;;1.42;0.60;;;4.90;99.90;;;;;;5119624;27;20051;-90
2021/12/02 13:24:19;;;;;;;0.50;0.40;;;5.10;99.90;;;;;;5117728;27;20047;-89